createdAt,value
2023-04-14T00:02:24.177Z,6.50
2023-04-14T00:04:54.501Z,6.15
2023-04-14T00:07:21.740Z,5.78
2023-04-14T00:09:48.984Z,5.80
2023-04-14T00:12:16.069Z,5.78
2023-04-14T00:14:43.520Z,5.82
2023-04-14T00:17:11.453Z,5.65
2023-04-14T00:19:58.423Z,5.85
2023-04-14T00:22:25.390Z,5.70
2023-04-14T00:24:52.159Z,6.10
2023-04-14T00:27:18.894Z,6.80
2023-04-14T00:29:45.742Z,6.00
2023-04-14T00:32:12.663Z,7.05
2023-04-14T00:34:39.428Z,6.93
2023-04-14T00:37:07.719Z,6.97
2023-04-14T00:39:34.571Z,7.85
2023-04-14T00:42:05.298Z,7.43
2023-04-14T00:44:32.189Z,7.57
2023-04-14T00:47:04.688Z,7.78
2023-04-14T00:49:32.937Z,8.70
2023-04-14T00:51:59.818Z,8.35
2023-04-14T00:54:28.162Z,8.95
2023-04-14T00:56:57.499Z,9.30
2023-04-14T00:59:25.665Z,10.10
2023-04-14T01:01:53.868Z,9.00
2023-04-14T01:04:21.496Z,10.10
2023-04-14T01:06:48.971Z,9.55
2023-04-14T01:09:16.549Z,8.90
2023-04-14T01:12:21.383Z,9.55
2023-04-14T01:15:12.798Z,10.10
2023-04-14T01:18:06.350Z,8.95
2023-04-14T01:20:43.927Z,9.55
2023-04-14T01:23:12.828Z,8.88
2023-04-14T01:26:10.001Z,8.90
2023-04-14T01:28:59.004Z,8.20
2023-04-14T01:31:27.710Z,9.10
2023-04-14T01:34:06.430Z,9.20
2023-04-14T01:36:54.206Z,9.13
2023-04-14T01:39:26.625Z,9.27
2023-04-14T01:41:57.120Z,9.70
2023-04-14T01:44:25.461Z,9.20
2023-04-14T01:46:57.327Z,9.52
2023-04-14T01:49:25.629Z,8.88
2023-04-14T01:51:58.742Z,8.70
2023-04-14T01:54:37.188Z,9.38
2023-04-14T01:57:05.481Z,9.32
2023-04-14T01:59:34.356Z,9.35
2023-04-14T02:02:05.084Z,7.78
2023-04-14T02:04:34.929Z,7.68
2023-04-14T02:07:05.346Z,8.25
2023-04-14T02:09:34.065Z,8.57
2023-04-14T02:12:04.769Z,8.05
2023-04-14T02:14:33.967Z,8.85
2023-04-14T02:17:04.429Z,8.02
2023-04-14T02:19:32.475Z,8.40
2023-04-14T02:22:03.773Z,7.38
2023-04-14T02:24:32.979Z,7.95
2023-04-14T02:27:10.756Z,7.72
2023-04-14T02:29:42.189Z,7.18
2023-04-14T02:32:17.543Z,7.35
2023-04-14T02:35:02.006Z,6.53
2023-04-14T02:37:39.108Z,5.95
2023-04-14T02:40:15.477Z,5.45
2023-04-14T02:42:48.231Z,5.00
2023-04-14T02:45:21.266Z,4.90
2023-04-14T02:47:54.487Z,4.18
2023-04-14T02:50:22.156Z,4.10
2023-04-14T02:53:02.435Z,3.45
2023-04-14T02:55:34.850Z,4.07
2023-04-14T02:58:02.385Z,2.97
2023-04-14T03:00:32.179Z,2.60
2023-04-14T03:03:01.473Z,2.38
2023-04-14T03:05:29.746Z,2.58
2023-04-14T03:08:10.739Z,1.75
2023-04-14T03:10:39.838Z,2.28
2023-04-14T03:13:09.733Z,2.20
2023-04-14T03:15:38.844Z,2.00
2023-04-14T03:18:06.781Z,1.98
2023-04-14T03:20:36.484Z,1.90
2023-04-14T03:23:05.592Z,2.28
2023-04-14T03:25:42.506Z,2.20
2023-04-14T03:28:23.049Z,2.10
2023-04-14T03:30:54.267Z,1.90
2023-04-14T03:33:29.061Z,1.88
2023-04-14T03:35:59.677Z,2.15
2023-04-14T03:38:28.401Z,1.80
2023-04-14T03:41:04.180Z,1.70
2023-04-14T03:43:34.744Z,1.80
2023-04-14T03:46:07.172Z,2.40
2023-04-14T03:48:42.539Z,3.70
2023-04-14T03:51:14.851Z,3.85
2023-04-14T03:53:46.475Z,4.90
2023-04-14T03:56:15.655Z,4.37
2023-04-14T03:58:47.498Z,3.90
2023-04-14T04:01:16.483Z,3.65
2023-04-14T04:03:45.775Z,4.35
2023-04-14T04:06:13.320Z,3.70
2023-04-14T04:08:42.545Z,3.92
2023-04-14T04:11:11.527Z,2.67
2023-04-14T04:13:39.367Z,1.90
2023-04-14T04:16:09.772Z,2.25
2023-04-14T04:18:39.709Z,1.85
2023-04-14T04:21:08.361Z,2.03
2023-04-14T04:23:37.409Z,1.38
2023-04-14T04:26:04.446Z,1.67
2023-04-14T04:28:37.305Z,2.28
2023-04-14T04:31:06.296Z,1.80
2023-04-14T04:33:34.501Z,2.40
2023-04-14T04:36:04.618Z,1.98
2023-04-14T04:38:36.557Z,2.08
2023-04-14T04:41:03.912Z,2.28
2023-04-14T04:43:31.186Z,2.40
2023-04-14T04:46:11.539Z,2.63
2023-04-14T04:48:39.739Z,1.92
2023-04-14T04:51:06.683Z,2.47
2023-04-14T04:53:33.979Z,2.10
2023-04-14T04:56:01.398Z,1.98
2023-04-14T04:58:28.287Z,2.47
2023-04-14T05:00:55.351Z,2.42
2023-04-14T05:03:22.247Z,2.97
2023-04-14T05:05:52.845Z,2.70
2023-04-14T05:08:19.625Z,2.58
2023-04-14T05:10:46.484Z,3.17
2023-04-14T05:13:13.304Z,3.55
2023-04-14T05:15:40.379Z,3.97
2023-04-14T05:18:07.245Z,4.10
2023-04-14T05:20:34.991Z,4.88
2023-04-14T05:23:01.996Z,4.72
2023-04-14T05:25:28.989Z,4.80
2023-04-14T05:27:55.894Z,5.28
2023-04-14T05:30:22.686Z,5.57
2023-04-14T05:32:49.662Z,5.47
2023-04-14T05:35:17.166Z,5.50
2023-04-14T05:37:43.997Z,5.22
2023-04-14T05:40:11.700Z,6.00
2023-04-14T05:42:41.637Z,5.40
2023-04-14T05:45:09.660Z,6.03
2023-04-14T05:47:37.360Z,5.30
2023-04-14T05:50:04.422Z,5.60
2023-04-14T05:52:31.376Z,6.07
2023-04-14T05:54:58.430Z,5.70
2023-04-14T05:57:25.536Z,5.10
2023-04-14T05:59:52.301Z,5.50
2023-04-14T06:02:19.174Z,5.15
2023-04-14T06:04:46.247Z,5.53
2023-04-14T06:07:13.150Z,5.40
2023-04-14T06:09:41.173Z,4.43
2023-04-14T06:12:08.064Z,5.47
2023-04-14T06:14:34.849Z,4.43
2023-04-14T06:17:01.634Z,4.95
2023-04-14T06:19:28.397Z,4.35
2023-04-14T06:21:56.552Z,4.10
2023-04-14T06:24:23.373Z,4.13
2023-04-14T06:26:50.299Z,4.47
2023-04-14T06:29:17.306Z,4.38
2023-04-14T06:31:44.151Z,5.10
2023-04-14T06:34:11.177Z,5.90
2023-04-14T06:36:38.111Z,6.43
2023-04-14T06:39:05.050Z,4.47
2023-04-14T06:41:31.828Z,4.57
2023-04-14T06:43:58.572Z,2.28
2023-04-14T06:46:25.566Z,1.80
2023-04-14T06:48:52.434Z,1.63
2023-04-14T06:51:19.322Z,1.23
2023-04-14T06:53:46.127Z,1.70
2023-04-14T06:56:13.125Z,1.55
2023-04-14T06:58:40.567Z,1.33
2023-04-14T07:01:07.458Z,1.40
2023-04-14T07:03:34.743Z,1.80
2023-04-14T07:06:05.840Z,1.65
2023-04-14T07:08:33.163Z,1.63
2023-04-14T07:11:02.127Z,2.00
2023-04-14T07:13:29.484Z,2.38
2023-04-14T07:15:56.381Z,2.15
2023-04-14T07:18:23.372Z,2.20
2023-04-14T07:20:52.892Z,2.65
2023-04-14T07:23:20.141Z,1.70
2023-04-14T07:25:57.836Z,1.80
2023-04-14T07:28:26.013Z,2.00
2023-04-14T07:30:53.340Z,1.83
2023-04-14T07:33:22.140Z,1.48
2023-04-14T07:36:01.221Z,1.83
2023-04-14T07:38:30.314Z,1.90
2023-04-14T07:40:57.663Z,1.65
2023-04-14T07:43:24.797Z,1.30
2023-04-14T07:45:53.303Z,1.33
2023-04-14T07:48:21.737Z,1.02
2023-04-14T07:50:50.102Z,1.38
2023-04-14T07:53:16.979Z,1.10
2023-04-14T07:55:43.820Z,1.13
2023-04-14T07:58:15.286Z,0.82
2023-04-14T08:00:43.838Z,1.17
2023-04-14T08:03:10.890Z,1.08
2023-04-14T08:05:38.052Z,0.95
2023-04-14T08:08:05.366Z,1.08
2023-04-14T08:10:32.186Z,1.73
2023-04-14T08:12:59.830Z,1.10
2023-04-14T08:15:27.979Z,0.90
2023-04-14T08:17:54.931Z,1.00
2023-04-14T08:20:22.966Z,0.73
2023-04-14T08:22:49.769Z,1.00
2023-04-14T08:25:16.937Z,1.10
2023-04-14T08:27:44.382Z,0.90
2023-04-14T08:30:11.747Z,0.95
2023-04-14T08:32:39.711Z,0.70
2023-04-14T08:35:38.527Z,0.82
2023-04-14T08:37:53.685Z,1.58
2023-04-14T08:40:24.817Z,1.40
2023-04-14T08:42:51.746Z,0.80
2023-04-14T08:45:19.983Z,0.80
2023-04-14T08:47:47.262Z,0.90
2023-04-14T08:50:18.677Z,1.08
2023-04-14T08:52:49.783Z,0.82
2023-04-14T08:55:19.906Z,0.82
2023-04-14T08:57:48.306Z,0.90
2023-04-14T09:00:16.019Z,1.17
2023-04-14T09:02:43.534Z,1.13
2023-04-14T09:05:11.497Z,0.80
2023-04-14T09:07:39.119Z,4.13
2023-04-14T09:10:15.468Z,1.05
2023-04-14T09:12:45.937Z,1.30
2023-04-14T09:15:16.650Z,0.90
2023-04-14T09:17:44.689Z,1.00
2023-04-14T09:20:35.567Z,0.80
2023-04-14T09:23:03.930Z,0.70
2023-04-14T09:25:34.255Z,1.00
2023-04-14T09:28:01.273Z,0.95
2023-04-14T09:30:28.994Z,1.10
2023-04-14T09:33:01.272Z,0.85
2023-04-14T09:35:46.090Z,0.90
2023-04-14T09:38:13.167Z,1.25
2023-04-14T09:40:46.275Z,1.10
2023-04-14T09:43:27.448Z,1.27
2023-04-14T09:45:56.050Z,1.48
2023-04-14T09:48:23.252Z,1.52
2023-04-14T09:51:01.826Z,1.60
2023-04-14T09:53:31.181Z,1.65
2023-04-14T09:56:00.295Z,1.38
2023-04-14T09:58:34.907Z,1.50
2023-04-14T10:01:05.652Z,2.10
2023-04-14T10:03:43.515Z,1.48
2023-04-14T10:06:21.239Z,1.55
2023-04-14T10:08:50.137Z,1.63
2023-04-14T10:11:25.854Z,1.48
2023-04-14T10:13:57.642Z,1.55
2023-04-14T10:16:25.102Z,1.60
2023-04-14T10:18:53.793Z,1.63
2023-04-14T10:21:23.162Z,1.30
2023-04-14T10:23:50.747Z,1.38
2023-04-14T10:26:19.169Z,1.35
2023-04-14T10:28:51.568Z,1.15
2023-04-14T10:31:29.772Z,1.53
2023-04-14T10:33:56.717Z,1.33
2023-04-14T10:36:29.250Z,1.00
2023-04-14T10:39:02.256Z,1.20
2023-04-14T10:41:43.824Z,0.90
2023-04-14T10:44:27.283Z,1.05
2023-04-14T10:46:56.671Z,0.85
2023-04-14T10:49:32.980Z,1.30
2023-04-14T10:52:05.011Z,0.80
2023-04-14T10:55:07.837Z,0.90
2023-04-14T10:57:42.298Z,0.80
2023-04-14T11:00:25.555Z,0.65
2023-04-14T11:03:03.213Z,0.70
2023-04-14T11:05:33.714Z,0.90
2023-04-14T11:08:02.975Z,0.80
2023-04-14T11:10:32.629Z,1.00
2023-04-14T11:13:05.635Z,0.85
2023-04-14T11:15:48.222Z,0.70
2023-04-14T11:18:28.374Z,0.80
2023-04-14T11:21:13.508Z,1.10
2023-04-14T11:23:42.777Z,0.80
2023-04-14T11:26:11.439Z,0.95
2023-04-14T11:28:40.778Z,1.00
2023-04-14T11:31:08.979Z,1.10
2023-04-14T11:33:38.254Z,0.88
2023-04-14T11:36:07.389Z,0.90
2023-04-14T11:38:41.012Z,0.98
2023-04-14T11:41:11.409Z,0.77
2023-04-14T11:43:39.158Z,0.70
2023-04-14T11:46:08.368Z,0.68
2023-04-14T11:48:40.004Z,0.70
2023-04-14T11:51:06.952Z,0.70
2023-04-14T11:53:34.700Z,0.90
2023-04-14T11:56:03.513Z,0.70
2023-04-14T11:58:30.727Z,0.88
2023-04-14T12:00:57.787Z,0.88
2023-04-14T12:03:29.532Z,1.02
2023-04-14T12:06:01.696Z,0.80
2023-04-14T12:08:32.928Z,0.70
2023-04-14T12:11:15.892Z,0.93
2023-04-14T12:13:44.145Z,0.68
2023-04-14T12:16:12.382Z,0.70
2023-04-14T12:18:40.094Z,0.75
2023-04-14T12:21:09.878Z,1.00
2023-04-14T12:23:42.669Z,0.93
2023-04-14T12:26:15.188Z,0.90
2023-04-14T12:28:45.446Z,1.02
2023-04-14T12:31:12.713Z,0.90
2023-04-14T12:33:40.253Z,0.98
2023-04-14T12:36:11.994Z,0.88
2023-04-14T12:38:40.452Z,0.98
2023-04-14T12:41:09.171Z,0.90
2023-04-14T12:43:37.470Z,1.00
2023-04-14T12:46:06.185Z,1.00
2023-04-14T12:48:59.569Z,0.82
2023-04-14T12:51:29.385Z,0.80
2023-04-14T12:54:08.931Z,0.85
2023-04-14T12:57:03.542Z,1.10
2023-04-14T12:59:33.328Z,0.98
2023-04-14T13:02:00.426Z,1.08
2023-04-14T13:04:27.315Z,1.20
2023-04-14T13:06:54.255Z,1.50
2023-04-14T13:09:21.126Z,1.00
2023-04-14T13:11:49.040Z,0.93
2023-04-14T13:14:17.625Z,1.00
2023-04-14T13:16:44.400Z,1.08
2023-04-14T13:19:11.369Z,0.90
2023-04-14T13:21:38.380Z,0.77
2023-04-14T13:24:07.115Z,1.35
2023-04-14T13:26:36.972Z,1.00
2023-04-14T13:29:04.861Z,0.93
2023-04-14T13:31:31.860Z,1.00
2023-04-14T13:33:58.769Z,1.00
2023-04-14T13:36:28.581Z,1.02
2023-04-14T13:38:55.957Z,0.85
2023-04-14T13:41:23.385Z,0.80
2023-04-14T13:43:50.376Z,0.90
2023-04-14T13:46:19.077Z,0.60
2023-04-14T13:48:46.507Z,0.50
2023-04-14T13:51:13.915Z,0.80
2023-04-14T13:53:40.857Z,0.70
2023-04-14T13:56:07.816Z,0.80
2023-04-14T13:58:34.643Z,0.80
2023-04-14T14:01:10.185Z,1.27
2023-04-14T14:03:40.517Z,1.00
2023-04-14T14:06:07.901Z,0.98
2023-04-14T14:08:37.923Z,1.05
2023-04-14T14:11:06.261Z,1.15
2023-04-14T14:13:37.197Z,0.90
2023-04-14T14:16:05.222Z,0.80
2023-04-14T14:18:32.212Z,0.80
2023-04-14T14:21:01.541Z,0.80
2023-04-14T14:23:28.645Z,1.00
2023-04-14T14:25:58.434Z,0.90
2023-04-14T14:28:27.787Z,1.20
2023-04-14T14:30:54.642Z,0.90
2023-04-14T14:33:21.375Z,0.95
2023-04-14T14:35:48.245Z,0.95
2023-04-14T14:38:15.121Z,1.30
2023-04-14T14:40:41.876Z,1.00
2023-04-14T14:43:08.635Z,0.80
2023-04-14T14:45:35.518Z,0.77
2023-04-14T14:48:02.790Z,1.00
2023-04-14T14:50:29.589Z,1.20
2023-04-14T14:52:57.069Z,0.77
2023-04-14T14:55:24.059Z,0.90
2023-04-14T14:57:52.291Z,0.90
2023-04-14T15:00:19.591Z,0.90
2023-04-14T15:02:46.814Z,1.00
2023-04-14T15:05:13.703Z,1.10
2023-04-14T15:07:40.720Z,1.15
2023-04-14T15:10:08.176Z,0.95
2023-04-14T15:12:35.042Z,1.58
2023-04-14T15:15:02.093Z,1.15
2023-04-14T15:17:31.504Z,1.30
2023-04-14T15:20:03.545Z,1.83
2023-04-14T15:22:32.234Z,3.88
2023-04-14T15:24:59.191Z,1.27
2023-04-14T15:27:26.019Z,1.02
2023-04-14T15:29:54.815Z,1.17
2023-04-14T15:32:26.732Z,0.95
2023-04-14T15:34:54.494Z,1.13
2023-04-14T15:37:21.864Z,1.08
2023-04-14T15:39:48.599Z,1.15
2023-04-14T15:42:15.667Z,1.40
2023-04-14T15:44:42.598Z,0.98
2023-04-14T15:47:10.752Z,1.10
2023-04-14T15:49:37.441Z,1.05
2023-04-14T15:52:06.839Z,1.05
2023-04-14T15:54:34.099Z,1.10
2023-04-14T15:57:02.365Z,1.10
2023-04-14T15:59:31.402Z,1.00
2023-04-14T16:01:59.657Z,1.00
2023-04-14T16:04:26.905Z,0.77
2023-04-14T16:06:55.578Z,1.23
2023-04-14T16:09:22.430Z,1.00
2023-04-14T16:11:49.220Z,1.25
2023-04-14T16:14:16.070Z,1.30
2023-04-14T16:16:46.966Z,0.95
2023-04-14T16:19:29.447Z,0.88
2023-04-14T16:21:57.020Z,0.80
2023-04-14T16:24:23.957Z,0.90
2023-04-14T16:26:50.852Z,1.00
2023-04-14T16:29:17.530Z,1.83
2023-04-14T16:31:47.130Z,1.00
2023-04-14T16:34:14.642Z,1.00
2023-04-14T16:36:41.478Z,0.90
2023-04-14T16:39:09.494Z,0.82
2023-04-14T16:41:42.090Z,0.80
2023-04-14T16:44:09.119Z,0.93
2023-04-14T16:46:36.093Z,0.80
2023-04-14T16:49:03.214Z,0.90
2023-04-14T16:51:30.207Z,1.00
2023-04-14T16:53:56.941Z,1.25
2023-04-14T16:56:24.223Z,0.73
2023-04-14T16:58:52.119Z,1.20
2023-04-14T17:01:18.973Z,1.00
2023-04-14T17:03:45.980Z,0.85
2023-04-14T17:06:12.913Z,1.20
2023-04-14T17:08:39.763Z,1.05
2023-04-14T17:11:06.557Z,0.80
2023-04-14T17:13:33.792Z,0.63
2023-04-14T17:16:08.426Z,1.20
2023-04-14T17:18:36.892Z,1.17
2023-04-14T17:21:04.449Z,1.10
2023-04-14T17:23:31.868Z,0.90
2023-04-14T17:26:00.362Z,1.00
2023-04-14T17:28:27.554Z,0.82
2023-04-14T17:30:54.385Z,1.00
2023-04-14T17:33:22.127Z,0.95
2023-04-14T17:35:48.957Z,1.00
2023-04-14T17:38:15.748Z,1.30
2023-04-14T17:40:42.731Z,1.10
2023-04-14T17:43:09.464Z,1.40
2023-04-14T17:45:36.294Z,0.85
2023-04-14T17:48:03.749Z,1.15
2023-04-14T17:50:31.122Z,0.90
2023-04-14T17:52:58.762Z,0.93
2023-04-14T17:55:25.965Z,1.48
2023-04-14T17:57:53.755Z,1.70
2023-04-14T18:00:21.231Z,1.30
2023-04-14T18:02:48.222Z,0.90
2023-04-14T18:05:15.399Z,1.08
2023-04-14T18:07:42.875Z,1.00
2023-04-14T18:10:10.023Z,1.10
2023-04-14T18:12:36.844Z,1.40
2023-04-14T18:15:08.256Z,1.30
2023-04-14T18:17:36.522Z,0.88
2023-04-14T18:20:04.347Z,1.10
2023-04-14T18:22:31.696Z,1.33
2023-04-14T18:24:58.491Z,1.10
2023-04-14T18:29:55.929Z,1.60
2023-04-14T18:32:25.319Z,1.85
2023-04-14T18:34:53.343Z,1.30
2023-04-14T18:37:20.135Z,2.08
2023-04-14T18:39:46.992Z,1.80
2023-04-14T18:42:14.754Z,2.50
2023-04-14T18:44:44.156Z,2.28
2023-04-14T18:47:11.611Z,2.22
2023-04-14T18:49:38.414Z,2.38
2023-04-14T18:52:05.836Z,2.65
2023-04-14T18:54:33.832Z,2.60
2023-04-14T18:57:04.052Z,2.50
2023-04-14T18:59:30.886Z,2.00
2023-04-14T19:01:58.363Z,2.00
2023-04-14T19:04:26.964Z,2.25
2023-04-14T19:07:12.588Z,1.98
2023-04-14T19:09:50.877Z,2.50
2023-04-14T19:12:28.966Z,2.30
2023-04-14T19:14:56.114Z,10.75
2023-04-14T19:17:26.178Z,2.90
2023-04-14T19:19:56.040Z,2.30
2023-04-14T19:22:28.610Z,2.35
2023-04-14T19:24:58.011Z,2.20
2023-04-14T19:27:25.045Z,2.05
2023-04-14T19:29:55.161Z,1.75
2023-04-14T19:32:23.705Z,1.60
2023-04-14T19:34:53.092Z,2.03
2023-04-14T19:37:29.732Z,1.90
2023-04-14T19:40:02.491Z,2.00
2023-04-14T19:42:31.004Z,1.63
2023-04-14T19:44:59.703Z,1.77
2023-04-14T19:47:29.081Z,1.50
2023-04-14T19:49:59.613Z,1.25
2023-04-14T19:52:35.648Z,1.10
2023-04-14T19:55:07.658Z,0.75
2023-04-14T19:57:38.978Z,0.90
2023-04-14T20:00:10.109Z,1.00
2023-04-14T20:05:37.126Z,0.60
2023-04-14T20:08:07.207Z,0.60
2023-04-14T20:10:51.649Z,0.60
2023-04-14T20:13:19.864Z,0.50
2023-04-14T20:15:48.954Z,0.52
2023-04-14T20:18:17.896Z,0.60
2023-04-14T20:20:46.411Z,0.43
2023-04-14T20:23:13.341Z,0.73
2023-04-14T20:25:49.830Z,0.50
2023-04-14T20:28:20.246Z,0.68
2023-04-14T20:30:52.159Z,0.80
2023-04-14T20:33:25.725Z,0.80
2023-04-14T20:36:01.754Z,0.50
2023-04-14T20:38:29.423Z,0.60
2023-04-14T20:40:57.785Z,0.50
2023-04-14T20:43:34.420Z,0.30
2023-04-14T20:46:02.274Z,0.30
2023-04-14T20:48:35.978Z,0.93
2023-04-14T20:51:02.798Z,0.22
2023-04-14T20:53:32.757Z,0.30
2023-04-14T20:56:02.444Z,0.40
2023-04-14T20:58:38.039Z,0.20
2023-04-14T21:01:05.310Z,0.40
2023-04-14T21:03:35.748Z,0.30
2023-04-14T21:06:06.283Z,0.22
2023-04-14T21:08:33.114Z,0.30
2023-04-14T21:11:15.068Z,0.30
2023-04-14T21:15:25.446Z,0.20
2023-04-14T21:16:30.487Z,0.10
2023-04-14T21:18:57.929Z,0.40
2023-04-14T21:21:27.940Z,0.20
2023-04-14T21:23:54.802Z,0.10
2023-04-14T21:26:22.065Z,0.30
2023-04-14T21:28:48.803Z,0.20
2023-04-14T21:31:16.939Z,0.20
2023-04-14T21:33:43.812Z,0.20
2023-04-14T21:36:11.207Z,0.30
2023-04-14T21:38:39.032Z,0.20
2023-04-14T21:41:06.549Z,0.30
2023-04-14T21:43:36.809Z,0.25
2023-04-14T21:46:05.230Z,0.40
2023-04-14T21:48:32.339Z,0.20
2023-04-14T21:50:59.074Z,0.20
2023-04-14T21:53:26.328Z,0.20
2023-04-14T21:56:08.737Z,0.35
2023-04-14T21:58:37.688Z,0.20
2023-04-14T22:01:04.735Z,0.22
2023-04-14T22:03:33.303Z,0.60
2023-04-14T22:06:00.300Z,0.50
2023-04-14T22:08:28.342Z,0.50
2023-04-14T22:10:57.895Z,0.30
2023-04-14T22:13:24.755Z,0.40
2023-04-14T22:15:52.247Z,0.50
2023-04-14T22:18:19.193Z,0.77
2023-04-14T22:20:45.965Z,0.68
2023-04-14T22:23:13.351Z,0.88
2023-04-14T22:25:40.262Z,1.02
2023-04-14T22:28:07.453Z,1.30
2023-04-14T22:30:34.407Z,1.17
2023-04-14T22:33:02.419Z,1.40
2023-04-14T22:35:30.163Z,1.27
2023-04-14T22:37:57.139Z,1.35
2023-04-14T22:40:24.187Z,1.40
2023-04-14T22:42:50.996Z,1.33
2023-04-14T22:45:18.573Z,1.60
2023-04-14T22:47:45.760Z,1.60
2023-04-14T22:50:12.816Z,1.45
2023-04-14T22:52:39.589Z,1.65
2023-04-14T22:55:06.769Z,2.78
2023-04-14T22:57:37.637Z,1.70
2023-04-14T23:00:12.385Z,1.50
2023-04-14T23:02:55.818Z,1.63
2023-04-14T23:05:22.787Z,1.00
2023-04-14T23:07:49.821Z,1.60
2023-04-14T23:10:16.760Z,1.38
2023-04-14T23:12:43.491Z,1.23
2023-04-14T23:15:10.327Z,1.48
2023-04-14T23:17:37.735Z,1.25
2023-04-14T23:20:05.936Z,1.88
2023-04-14T23:22:32.976Z,1.75
2023-04-14T23:25:00.032Z,1.90
2023-04-14T23:27:27.188Z,2.00
2023-04-14T23:29:54.176Z,1.92
2023-04-14T23:32:20.933Z,2.13
2023-04-14T23:34:48.446Z,2.10
2023-04-14T23:37:15.257Z,2.65
2023-04-14T23:39:42.057Z,2.05
2023-04-14T23:42:08.925Z,2.45
2023-04-14T23:44:35.647Z,2.33
2023-04-14T23:47:02.506Z,3.00
2023-04-14T23:49:34.166Z,2.70
2023-04-14T23:52:02.032Z,2.85
2023-04-14T23:54:30.805Z,2.88
2023-04-14T23:56:58.119Z,2.50
2023-04-14T23:59:24.942Z,2.75
